createdAt,value
2018-09-15T00:00:38.843Z,16.30
2018-09-15T00:03:06.916Z,16.30
2018-09-15T00:05:35.391Z,16.30
2018-09-15T00:08:03.125Z,16.30
2018-09-15T00:10:30.778Z,16.30
2018-09-15T00:12:58.561Z,16.30
2018-09-15T00:15:26.182Z,16.30
2018-09-15T00:17:54.614Z,16.30
2018-09-15T00:20:22.545Z,16.30
2018-09-15T00:22:50.096Z,16.20
2018-09-15T00:25:18.506Z,16.20
2018-09-15T00:27:46.380Z,16.20
2018-09-15T00:30:14.805Z,16.30
2018-09-15T00:32:42.490Z,16.30
2018-09-15T00:35:10.242Z,16.20
2018-09-15T00:37:38.670Z,16.20
2018-09-15T00:40:06.637Z,16.30
2018-09-15T00:42:34.259Z,16.20
2018-09-15T00:45:02.064Z,16.20
2018-09-15T00:47:29.692Z,16.10
2018-09-15T00:49:57.468Z,16.10
2018-09-15T00:52:25.112Z,16.10
2018-09-15T00:54:52.671Z,16.10
2018-09-15T00:57:20.259Z,16.20
2018-09-15T00:59:47.906Z,16.10
2018-09-15T01:02:15.679Z,16.20
2018-09-15T01:04:43.444Z,16.20
2018-09-15T01:07:11.012Z,16.10
2018-09-15T01:09:38.612Z,16.10
2018-09-15T01:12:06.387Z,16.10
2018-09-15T01:14:34.531Z,16.00
2018-09-15T01:17:02.948Z,16.00
2018-09-15T01:19:30.571Z,16.00
2018-09-15T01:21:58.180Z,16.10
2018-09-15T01:24:26.393Z,16.10
2018-09-15T01:26:54.169Z,16.20
2018-09-15T01:29:22.349Z,16.10
2018-09-15T01:31:50.015Z,16.10
2018-09-15T01:34:17.644Z,16.10
2018-09-15T01:36:45.316Z,16.10
2018-09-15T01:39:13.601Z,15.90
2018-09-15T01:41:41.328Z,16.00
2018-09-15T01:44:09.003Z,16.00
2018-09-15T01:46:36.656Z,16.00
2018-09-15T01:49:04.971Z,16.00
2018-09-15T01:51:32.843Z,16.00
2018-09-15T01:56:33.235Z,16.10
2018-09-15T01:59:00.788Z,16.30
2018-09-15T02:01:28.621Z,16.30
2018-09-15T02:03:56.842Z,16.30
2018-09-15T02:06:24.647Z,16.40
2018-09-15T02:08:52.248Z,16.40
2018-09-15T02:11:20.931Z,16.50
2018-09-15T02:13:48.567Z,16.50
2018-09-15T02:16:16.227Z,16.50
2018-09-15T02:18:44.068Z,16.50
2018-09-15T02:21:11.767Z,16.60
2018-09-15T02:23:39.403Z,16.60
2018-09-15T02:26:07.435Z,16.60
2018-09-15T02:28:34.958Z,16.60
2018-09-15T02:31:02.630Z,16.70
2018-09-15T02:33:30.148Z,16.70
2018-09-15T02:35:58.024Z,16.80
2018-09-15T02:38:25.754Z,16.70
2018-09-15T02:40:53.408Z,16.70
2018-09-15T02:43:21.220Z,16.70
2018-09-15T02:45:48.852Z,16.60
2018-09-15T02:48:16.395Z,16.60
2018-09-15T02:50:44.022Z,16.50
2018-09-15T02:53:11.772Z,16.60
2018-09-15T02:55:39.559Z,16.50
2018-09-15T02:58:07.212Z,16.50
2018-09-15T03:00:35.174Z,16.30
2018-09-15T03:03:02.911Z,16.40
2018-09-15T03:05:30.625Z,16.40
2018-09-15T03:07:58.284Z,16.50
2018-09-15T03:10:26.641Z,16.50
2018-09-15T03:12:54.440Z,16.60
2018-09-15T03:15:22.145Z,16.50
2018-09-15T03:17:49.924Z,16.40
2018-09-15T03:20:17.520Z,16.30
2018-09-15T03:22:45.979Z,16.30
2018-09-15T03:25:13.780Z,16.30
2018-09-15T03:27:41.600Z,16.30
2018-09-15T03:30:09.285Z,16.30
2018-09-15T03:32:36.843Z,16.20
2018-09-15T03:35:04.431Z,16.20
2018-09-15T03:37:32.320Z,16.20
2018-09-15T03:40:00.129Z,16.10
2018-09-15T03:42:27.728Z,16.20
2018-09-15T03:44:56.095Z,16.20
2018-09-15T03:47:23.835Z,16.20
2018-09-15T03:49:51.479Z,16.20
2018-09-15T03:52:19.220Z,16.20
2018-09-15T03:54:46.823Z,16.10
2018-09-15T03:57:15.111Z,16.00
2018-09-15T03:59:42.983Z,15.90
2018-09-15T04:02:11.549Z,15.90
2018-09-15T04:04:39.145Z,15.90
2018-09-15T04:07:06.880Z,15.90
2018-09-15T04:09:35.221Z,15.70
2018-09-15T04:12:02.819Z,15.70
2018-09-15T04:14:30.448Z,15.70
2018-09-15T04:16:58.848Z,15.70
2018-09-15T04:19:26.535Z,15.60
2018-09-15T04:21:54.316Z,15.60
2018-09-15T04:24:22.099Z,15.60
2018-09-15T04:26:50.357Z,15.50
2018-09-15T04:29:17.980Z,15.50
2018-09-15T04:31:45.643Z,15.50
2018-09-15T04:34:13.368Z,15.50
2018-09-15T04:36:41.081Z,15.50
2018-09-15T04:39:10.533Z,15.50
2018-09-15T04:41:38.340Z,15.40
2018-09-15T04:44:06.256Z,15.30
2018-09-15T04:46:34.104Z,15.30
2018-09-15T04:49:01.748Z,15.20
2018-09-15T04:51:29.713Z,15.10
2018-09-15T04:53:57.403Z,15.10
2018-09-15T04:56:25.035Z,15.10
2018-09-15T04:58:52.861Z,15.10
2018-09-15T05:01:21.883Z,15.10
2018-09-15T05:03:49.577Z,15.10
2018-09-15T05:06:17.152Z,15.10
2018-09-15T05:08:44.868Z,15.10
2018-09-15T05:11:12.801Z,15.20
2018-09-15T05:13:40.583Z,15.20
2018-09-15T05:16:08.149Z,15.20
2018-09-15T05:18:36.101Z,15.30
2018-09-15T05:21:03.892Z,15.30
2018-09-15T05:23:31.718Z,15.30
2018-09-15T05:25:59.480Z,15.40
2018-09-15T05:28:27.144Z,15.30
2018-09-15T05:30:54.714Z,15.30
2018-09-15T05:33:22.378Z,15.10
2018-09-15T05:35:50.188Z,15.10
2018-09-15T05:38:17.803Z,15.20
2018-09-15T05:40:45.316Z,15.30
2018-09-15T05:43:12.919Z,15.30
2018-09-15T05:45:40.581Z,15.30
2018-09-15T05:48:08.172Z,15.20
2018-09-15T05:50:35.739Z,15.30
2018-09-15T05:53:03.564Z,15.30
2018-09-15T05:55:31.156Z,15.50
2018-09-15T05:57:58.944Z,15.50
2018-09-15T06:00:26.845Z,15.50
2018-09-15T06:02:54.725Z,15.60
2018-09-15T06:05:22.324Z,15.60
2018-09-15T06:07:50.053Z,15.70
2018-09-15T06:10:17.711Z,15.70
2018-09-15T06:12:46.208Z,16.00
2018-09-15T06:15:13.892Z,16.10
2018-09-15T06:17:41.625Z,16.10
2018-09-15T06:20:09.271Z,16.30
2018-09-15T06:22:36.957Z,16.30
2018-09-15T06:25:04.712Z,16.20
2018-09-15T06:27:32.352Z,16.10
2018-09-15T06:29:59.901Z,16.20
2018-09-15T06:32:28.260Z,16.30
2018-09-15T06:34:56.745Z,16.30
2018-09-15T06:37:24.357Z,16.30
2018-09-15T06:39:52.039Z,16.40
2018-09-15T06:42:19.908Z,16.40
2018-09-15T06:44:47.479Z,16.40
2018-09-15T06:47:15.099Z,16.30
2018-09-15T06:49:43.634Z,16.20
2018-09-15T06:52:11.396Z,16.20
2018-09-15T06:54:39.094Z,16.20
2018-09-15T06:57:08.145Z,16.40
2018-09-15T06:59:35.823Z,16.50
2018-09-15T07:02:03.548Z,16.60
2018-09-15T07:04:31.284Z,16.70
2018-09-15T07:06:58.984Z,16.80
2018-09-15T07:09:27.305Z,17.00
2018-09-15T07:11:55.201Z,16.90
2018-09-15T07:14:22.971Z,17.00
2018-09-15T07:16:50.804Z,17.20
2018-09-15T07:19:19.132Z,17.40
2018-09-15T07:21:47.103Z,17.50
2018-09-15T07:24:14.791Z,17.70
2018-09-15T07:26:42.433Z,17.90
2018-09-15T07:29:10.049Z,18.20
2018-09-15T07:31:37.794Z,18.40
2018-09-15T07:34:06.314Z,18.80
2018-09-15T07:36:34.067Z,19.10
2018-09-15T07:39:07.484Z,19.40
2018-09-15T07:41:35.151Z,19.60
2018-09-15T07:44:02.792Z,19.80
2018-09-15T07:46:30.766Z,20.10
2018-09-15T07:48:58.579Z,20.40
2018-09-15T07:51:26.189Z,20.70
2018-09-15T07:53:54.201Z,21.00
2018-09-15T07:56:22.659Z,21.50
2018-09-15T07:58:50.232Z,21.70
2018-09-15T08:01:18.091Z,21.80
2018-09-15T08:03:46.375Z,21.90
2018-09-15T08:06:14.261Z,22.40
2018-09-15T08:08:42.959Z,23.10
2018-09-15T08:11:10.725Z,23.50
2018-09-15T08:13:38.311Z,23.70
2018-09-15T08:16:06.271Z,23.70
2018-09-15T08:18:34.170Z,24.40
2018-09-15T08:21:02.031Z,24.60
2018-09-15T08:23:29.915Z,24.60
2018-09-15T08:25:57.853Z,24.60
2018-09-15T08:28:26.199Z,24.90
2018-09-15T08:30:53.891Z,25.50
2018-09-15T08:33:21.604Z,25.80
2018-09-15T08:35:49.279Z,26.20
2018-09-15T08:38:16.940Z,26.10
2018-09-15T08:40:44.569Z,26.60
2018-09-15T08:43:12.369Z,26.70
2018-09-15T08:45:41.252Z,27.10
2018-09-15T08:48:09.129Z,26.60
2018-09-15T08:50:37.952Z,26.50
2018-09-15T08:53:05.648Z,26.40
2018-09-15T08:55:33.207Z,27.40
2018-09-15T08:58:00.919Z,28.00
2018-09-15T09:00:28.587Z,28.20
2018-09-15T09:02:56.912Z,28.30
2018-09-15T09:05:25.167Z,28.70
2018-09-15T09:07:52.736Z,28.70
2018-09-15T09:10:20.349Z,28.20
2018-09-15T09:12:48.036Z,27.60
2018-09-15T09:15:15.960Z,27.20
2018-09-15T09:17:43.667Z,26.40
2018-09-15T09:20:11.384Z,25.30
2018-09-15T09:22:39.106Z,25.70
2018-09-15T09:25:07.015Z,26.30
2018-09-15T09:27:35.447Z,26.50
2018-09-15T09:30:03.293Z,26.70
2018-09-15T09:32:31.343Z,25.80
2018-09-15T09:34:59.105Z,26.10
2018-09-15T09:37:26.676Z,26.10
2018-09-15T09:39:54.524Z,27.00
2018-09-15T09:42:22.392Z,27.40
2018-09-15T09:44:50.212Z,27.50
2018-09-15T09:47:17.872Z,27.90
2018-09-15T09:49:45.772Z,28.50
2018-09-15T09:52:13.821Z,28.10
2018-09-15T09:54:41.453Z,28.10
2018-09-15T09:57:09.037Z,27.70
2018-09-15T09:59:37.136Z,26.50
2018-09-15T10:02:10.755Z,27.00
2018-09-15T10:04:39.280Z,28.00
2018-09-15T10:07:07.737Z,28.40
2018-09-15T10:09:35.682Z,29.40
2018-09-15T10:12:03.662Z,30.10
2018-09-15T10:14:31.782Z,30.00
2018-09-15T10:16:59.464Z,29.00
2018-09-15T10:19:27.224Z,28.70
2018-09-15T10:21:54.891Z,27.90
2018-09-15T10:24:22.600Z,28.10
2018-09-15T10:26:50.364Z,27.70
2018-09-15T10:29:18.525Z,27.30
2018-09-15T10:31:46.237Z,26.70
2018-09-15T10:34:14.200Z,26.20
2018-09-15T10:36:42.259Z,25.60
2018-09-15T10:39:10.720Z,25.60
2018-09-15T10:41:39.210Z,25.30
2018-09-15T10:44:07.183Z,25.90
2018-09-15T10:46:34.890Z,27.30
2018-09-15T10:49:03.064Z,28.60
2018-09-15T10:51:30.624Z,30.30
2018-09-15T10:53:58.563Z,30.50
2018-09-15T10:56:26.207Z,31.20
2018-09-15T10:58:54.254Z,30.60
2018-09-15T11:01:22.718Z,29.90
2018-09-15T11:03:50.351Z,29.40
2018-09-15T11:06:18.196Z,28.20
2018-09-15T11:08:45.842Z,27.70
2018-09-15T11:11:13.992Z,27.20
2018-09-15T11:13:41.581Z,26.20
2018-09-15T11:16:09.139Z,26.00
2018-09-15T11:18:36.931Z,25.50
2018-09-15T11:21:04.879Z,25.30
2018-09-15T11:23:32.676Z,25.10
2018-09-15T11:26:01.224Z,24.90
2018-09-15T11:28:29.621Z,24.60
2018-09-15T11:30:57.935Z,24.20
2018-09-15T11:33:26.024Z,24.20
2018-09-15T11:35:53.599Z,24.30
2018-09-15T11:38:21.395Z,24.20
2018-09-15T11:40:49.106Z,24.30
2018-09-15T11:43:16.884Z,24.20
2018-09-15T11:45:44.632Z,23.80
2018-09-15T11:48:12.508Z,23.60
2018-09-15T11:50:40.515Z,23.60
2018-09-15T11:53:08.915Z,23.50
2018-09-15T11:55:36.696Z,24.20
2018-09-15T11:58:05.304Z,24.50
2018-09-15T12:00:35.321Z,24.10
2018-09-15T12:03:03.242Z,24.20
2018-09-15T12:05:30.889Z,25.10
2018-09-15T12:07:59.316Z,25.70
2018-09-15T12:10:27.549Z,26.20
2018-09-15T12:12:55.365Z,26.80
2018-09-15T12:15:23.175Z,26.10
2018-09-15T12:17:50.841Z,26.30
2018-09-15T12:20:18.789Z,25.80
2018-09-15T12:22:46.664Z,25.60
2018-09-15T12:25:14.448Z,25.10
2018-09-15T12:27:42.140Z,24.90
2018-09-15T12:30:09.912Z,24.30
2018-09-15T12:32:37.659Z,24.50
2018-09-15T12:35:05.600Z,25.00
2018-09-15T12:37:33.417Z,25.40
2018-09-15T12:40:00.983Z,25.40
2018-09-15T12:42:28.639Z,25.80
2018-09-15T12:44:56.404Z,26.00
2018-09-15T12:47:24.004Z,26.60
2018-09-15T12:49:51.809Z,26.70
2018-09-15T12:52:19.737Z,27.00
2018-09-15T12:54:47.410Z,26.90
2018-09-15T12:57:15.683Z,26.90
2018-09-15T12:59:43.323Z,26.50
2018-09-15T13:02:11.102Z,26.30
2018-09-15T13:04:39.030Z,25.80
2018-09-15T13:07:06.944Z,25.90
2018-09-15T13:09:35.568Z,26.10
2018-09-15T13:12:03.377Z,25.90
2018-09-15T13:14:31.007Z,26.10
2018-09-15T13:16:58.847Z,26.10
2018-09-15T13:19:27.092Z,26.30
2018-09-15T13:21:55.290Z,25.50
2018-09-15T13:24:23.006Z,25.20
2018-09-15T13:26:50.659Z,25.10
2018-09-15T13:29:19.010Z,25.50
2018-09-15T13:31:46.617Z,25.80
2018-09-15T13:34:14.275Z,25.90
2018-09-15T13:36:42.061Z,26.00
2018-09-15T13:39:11.035Z,26.10
2018-09-15T13:41:38.699Z,26.10
2018-09-15T13:44:06.573Z,26.20
2018-09-15T13:46:34.359Z,26.00
2018-09-15T13:49:02.136Z,26.00
2018-09-15T13:51:29.671Z,26.40
2018-09-15T13:54:01.403Z,26.50
2018-09-15T13:56:29.119Z,26.60
2018-09-15T13:58:56.776Z,26.40
2018-09-15T14:01:24.319Z,26.20
2018-09-15T14:03:52.124Z,26.30
2018-09-15T14:06:19.949Z,26.10
2018-09-15T14:08:48.365Z,25.90
2018-09-15T14:11:16.112Z,25.90
2018-09-15T14:13:44.040Z,25.90
2018-09-15T14:16:11.652Z,26.20
2018-09-15T14:18:39.825Z,26.10
2018-09-15T14:21:08.215Z,26.10
2018-09-15T14:23:35.955Z,26.30
2018-09-15T14:26:03.677Z,26.30
2018-09-15T14:28:31.384Z,26.10
2018-09-15T14:30:59.785Z,25.70
2018-09-15T14:33:27.661Z,25.50
2018-09-15T14:35:55.341Z,24.90
2018-09-15T14:38:22.932Z,24.60
2018-09-15T14:40:50.567Z,24.40
2018-09-15T14:43:18.396Z,24.40
2018-09-15T14:45:46.129Z,23.70
2018-09-15T14:48:13.810Z,23.70
2018-09-15T14:50:41.328Z,23.90
2018-09-15T14:53:08.889Z,24.20
2018-09-15T14:55:36.687Z,24.40
2018-09-15T14:58:04.604Z,24.50
2018-09-15T15:00:32.244Z,24.60
2018-09-15T15:03:06.445Z,24.80
2018-09-15T15:05:35.281Z,25.10
2018-09-15T15:08:02.940Z,25.40
2018-09-15T15:10:30.553Z,25.50
2018-09-15T15:12:58.499Z,25.70
2018-09-15T15:15:26.366Z,26.00
2018-09-15T15:17:54.141Z,26.60
2018-09-15T15:20:21.724Z,26.90
2018-09-15T15:22:49.292Z,27.50
2018-09-15T15:25:17.060Z,28.60
2018-09-15T15:27:45.206Z,29.80
2018-09-15T15:30:13.185Z,30.40
2018-09-15T15:32:40.815Z,31.00
2018-09-15T15:35:08.694Z,31.60
2018-09-15T15:37:37.030Z,30.10
2018-09-15T15:40:04.831Z,28.50
2018-09-15T15:42:32.448Z,28.60
2018-09-15T15:45:00.453Z,29.00
2018-09-15T15:47:28.771Z,29.00
2018-09-15T15:49:56.569Z,29.90
2018-09-15T15:52:24.329Z,30.10
2018-09-15T15:54:52.052Z,30.40
2018-09-15T15:57:19.884Z,30.30
2018-09-15T15:59:47.616Z,30.20
2018-09-15T16:02:15.368Z,29.80
2018-09-15T16:04:42.983Z,29.80
2018-09-15T16:07:10.563Z,29.50
2018-09-15T16:09:38.247Z,29.60
2018-09-15T16:12:05.829Z,29.70
2018-09-15T16:14:37.905Z,29.10
2018-09-15T16:17:05.628Z,28.50
2018-09-15T16:19:33.179Z,28.00
2018-09-15T16:22:00.901Z,27.60
2018-09-15T16:24:28.539Z,27.30
2018-09-15T16:26:56.212Z,26.60
2018-09-15T16:29:23.765Z,26.00
2018-09-15T16:31:51.548Z,25.70
2018-09-15T16:34:19.207Z,25.20
2018-09-15T16:36:48.068Z,24.70
2018-09-15T16:39:15.753Z,24.10
2018-09-15T16:41:43.518Z,23.70
2018-09-15T16:44:11.440Z,23.30
2018-09-15T16:46:39.260Z,22.80
2018-09-15T16:49:07.319Z,22.40
2018-09-15T16:51:35.831Z,22.30
2018-09-15T16:54:04.260Z,22.00
2018-09-15T16:56:31.867Z,21.80
2018-09-15T16:58:59.628Z,21.50
2018-09-15T17:01:27.296Z,21.40
2018-09-15T17:03:55.145Z,21.20
2018-09-15T17:06:23.684Z,21.00
2018-09-15T17:08:52.091Z,20.70
2018-09-15T17:11:19.821Z,20.60
2018-09-15T17:13:47.832Z,20.50
2018-09-15T17:16:16.425Z,20.40
2018-09-15T17:18:44.270Z,20.30
2018-09-15T17:21:12.882Z,20.20
2018-09-15T17:23:40.553Z,20.10
2018-09-15T17:26:08.326Z,20.00
2018-09-15T17:28:35.942Z,19.90
2018-09-15T17:31:03.902Z,19.70
2018-09-15T17:33:31.936Z,19.70
2018-09-15T17:35:59.687Z,19.60
2018-09-15T17:38:27.275Z,19.50
2018-09-15T17:40:54.968Z,19.40
2018-09-15T17:43:22.658Z,19.30
2018-09-15T17:45:50.861Z,19.20
2018-09-15T17:48:18.630Z,19.10
2018-09-15T17:50:46.363Z,19.00
2018-09-15T17:53:13.948Z,18.90
2018-09-15T17:55:41.658Z,18.70
2018-09-15T17:58:09.464Z,18.60
2018-09-15T18:00:37.447Z,18.50
2018-09-15T18:03:05.200Z,18.30
2018-09-15T18:05:32.999Z,18.20
2018-09-15T18:08:00.763Z,18.20
2018-09-15T18:10:28.479Z,18.00
2018-09-15T18:12:56.667Z,18.00
2018-09-15T18:15:24.475Z,17.90
2018-09-15T18:17:52.106Z,17.70
2018-09-15T18:20:19.827Z,17.50
2018-09-15T18:22:47.744Z,17.30
2018-09-15T18:25:15.475Z,17.20
2018-09-15T18:27:43.299Z,17.10
2018-09-15T18:30:10.907Z,17.00
2018-09-15T18:32:38.905Z,17.00
2018-09-15T18:35:07.384Z,16.90
2018-09-15T18:37:35.123Z,16.70
2018-09-15T18:40:03.216Z,16.60
2018-09-15T18:42:30.843Z,16.50
2018-09-15T18:44:58.619Z,16.50
2018-09-15T18:47:27.183Z,16.50
2018-09-15T18:49:55.877Z,16.30
2018-09-15T18:52:23.479Z,16.20
2018-09-15T18:54:51.354Z,16.10
2018-09-15T18:57:18.988Z,16.00
2018-09-15T18:59:46.747Z,15.80
2018-09-15T19:02:15.188Z,15.60
2018-09-15T19:04:42.811Z,15.30
2018-09-15T19:07:10.933Z,15.20
2018-09-15T19:09:38.861Z,15.10
2018-09-15T19:12:06.923Z,15.00
2018-09-15T19:14:34.650Z,14.90
2018-09-15T19:17:02.406Z,14.80
2018-09-15T19:19:30.105Z,14.80
2018-09-15T19:21:57.944Z,14.80
2018-09-15T19:24:25.557Z,14.70
2018-09-15T19:26:53.201Z,14.60
2018-09-15T19:29:20.952Z,14.50
2018-09-15T19:31:48.747Z,14.30
2018-09-15T19:34:16.349Z,14.20
2018-09-15T19:36:43.948Z,14.10
2018-09-15T19:39:13.808Z,14.10
2018-09-15T19:41:42.363Z,14.10
2018-09-15T19:44:10.818Z,14.00
2018-09-15T19:46:39.029Z,14.00
2018-09-15T19:49:07.729Z,13.70
2018-09-15T19:51:35.371Z,13.70
2018-09-15T19:54:03.165Z,13.50
2018-09-15T19:56:30.751Z,13.50
2018-09-15T19:58:58.492Z,13.50
2018-09-15T20:01:26.368Z,13.30
2018-09-15T20:03:54.081Z,13.30
2018-09-15T20:06:21.968Z,13.00
2018-09-15T20:08:50.079Z,12.90
2018-09-15T20:11:18.119Z,12.90
2018-09-15T20:13:45.863Z,12.90
2018-09-15T20:16:12.471Z,12.90
2018-09-15T20:18:38.940Z,12.90
2018-09-15T20:21:06.068Z,12.80
2018-09-15T20:23:33.658Z,12.60
2018-09-15T20:26:01.343Z,12.60
2018-09-15T20:28:29.139Z,12.50
2018-09-15T20:30:56.848Z,12.50
2018-09-15T20:33:24.454Z,12.50
2018-09-15T20:35:52.018Z,12.40
2018-09-15T20:38:19.716Z,12.30
2018-09-15T20:40:47.489Z,12.30
2018-09-15T20:43:15.382Z,12.30
2018-09-15T20:45:43.279Z,12.30
2018-09-15T20:48:10.952Z,12.20
2018-09-15T20:50:38.508Z,12.20
2018-09-15T20:53:06.078Z,12.00
2018-09-15T20:55:34.682Z,11.80
2018-09-15T20:58:02.491Z,11.80
2018-09-15T21:00:30.705Z,11.80
2018-09-15T21:02:58.540Z,11.80
2018-09-15T21:05:26.427Z,11.70
2018-09-15T21:07:54.274Z,11.80
2018-09-15T21:10:22.020Z,11.80
2018-09-15T21:12:49.599Z,11.90
2018-09-15T21:15:17.509Z,11.90
2018-09-15T21:17:45.205Z,11.80
2018-09-15T21:20:13.095Z,11.70
2018-09-15T21:22:40.863Z,11.70
2018-09-15T21:25:08.492Z,11.50
2018-09-15T21:27:36.383Z,11.40
2018-09-15T21:30:04.600Z,11.30
2018-09-15T21:32:32.398Z,11.30
2018-09-15T21:35:00.318Z,11.20
2018-09-15T21:37:28.111Z,11.20
2018-09-15T21:39:55.796Z,11.30
2018-09-15T21:42:23.548Z,11.20
2018-09-15T21:44:51.165Z,11.20
2018-09-15T21:47:18.912Z,11.20
2018-09-15T21:49:46.483Z,11.10
2018-09-15T21:52:14.307Z,11.00
2018-09-15T21:54:41.947Z,11.00
2018-09-15T21:57:09.873Z,11.00
2018-09-15T21:59:37.503Z,10.90
2018-09-15T22:02:05.085Z,10.90
2018-09-15T22:04:32.828Z,11.00
2018-09-15T22:07:00.632Z,10.90
2018-09-15T22:09:28.316Z,10.90
2018-09-15T22:11:56.031Z,10.80
2018-09-15T22:14:23.685Z,10.80
2018-09-15T22:16:51.367Z,10.70
2018-09-15T22:19:19.385Z,10.70
2018-09-15T22:21:47.051Z,10.70
2018-09-15T22:24:14.720Z,10.60
2018-09-15T22:26:42.337Z,10.50
2018-09-15T22:29:10.244Z,10.40
2018-09-15T22:31:37.869Z,10.40
2018-09-15T22:34:05.754Z,10.50
2018-09-15T22:36:33.319Z,10.50
2018-09-15T22:39:00.883Z,10.40
2018-09-15T22:41:28.555Z,10.40
2018-09-15T22:43:56.947Z,10.30
2018-09-15T22:46:24.595Z,10.30
2018-09-15T22:48:52.268Z,10.10
2018-09-15T22:51:19.918Z,10.20
2018-09-15T22:53:47.550Z,10.20
2018-09-15T22:56:15.436Z,10.10
2018-09-15T22:58:42.976Z,10.10
2018-09-15T23:01:10.616Z,10.10
2018-09-15T23:03:38.245Z,10.10
2018-09-15T23:06:06.281Z,10.20
2018-09-15T23:08:34.094Z,10.20
2018-09-15T23:11:01.712Z,10.00
2018-09-15T23:13:29.443Z,10.00
2018-09-15T23:15:57.160Z,10.00
2018-09-15T23:18:24.760Z,10.00
2018-09-15T23:20:52.439Z,9.90
2018-09-15T23:23:20.239Z,9.90
2018-09-15T23:25:47.836Z,9.90
2018-09-15T23:28:15.481Z,9.90
2018-09-15T23:30:43.015Z,9.90
2018-09-15T23:33:10.677Z,10.00
2018-09-15T23:35:38.491Z,9.90
2018-09-15T23:38:06.224Z,9.80
2018-09-15T23:40:34.472Z,9.70
2018-09-15T23:43:02.316Z,9.70
2018-09-15T23:45:29.922Z,9.70
2018-09-15T23:47:57.592Z,9.60
2018-09-15T23:50:25.232Z,9.60
2018-09-15T23:52:53.649Z,9.50
2018-09-15T23:55:21.384Z,9.50
2018-09-15T23:57:48.975Z,9.50
